Weather at Iowa Falls Municipal Airport

Public forecast

Using degrees Fahrenheit for public forecast. Weather courtesy of forecast.io.

Current aviation weather report (METAR) for Iowa Falls Municipal Airport

Retrieved 2020/09/20 10:35 UTC (2 minutes ago):

KIFA 201035Z AUTO 14005KT 10SM CLR 09/05 A3027 RMK AO2 T00870051

Closest aviation forecast (TAF) to Iowa Falls Municipal Airport

Closest forecast is Waterloo Regional Airport, 38.8 nm (71.9 km) E. Retrieved 2020/09/20 06:22 UTC (4 hours ago):

TAF KALO 200520Z 2006/2106 15008KT P6SM SCT250 FM201500 16016G24KT P6SM SCT250 FM210000 15011KT P6SM BKN250